createdAt,value
2022-09-12T00:02:35.783Z,99790.16
2022-09-12T00:07:38.314Z,99817.38
2022-09-12T00:12:40.943Z,99697.91
2022-09-12T00:17:43.459Z,99751.09
2022-09-12T00:22:45.926Z,99760.06
2022-09-12T00:27:48.462Z,99727.13
2022-09-12T00:32:52.103Z,99791.88
2022-09-12T00:37:54.513Z,99900.06
2022-09-12T00:42:56.918Z,99738.63
2022-09-12T00:48:04.178Z,99902.44
2022-09-12T00:53:09.778Z,99904.47
2022-09-12T00:58:27.424Z,99940.22
2022-09-12T01:03:30.046Z,99897.34
2022-09-12T01:08:34.833Z,99945.13
2022-09-12T01:13:37.951Z,99943.53
2022-09-12T01:18:46.863Z,99944.97
2022-09-12T01:24:12.186Z,99934.63
2022-09-12T01:29:40.492Z,99952.50
2022-09-12T01:34:54.238Z,99880.47
2022-09-12T01:40:27.423Z,99947.06
2022-09-12T01:45:34.031Z,99946.25
2022-09-12T01:50:42.273Z,99902.72
2022-09-12T01:56:09.259Z,99919.31
2022-09-12T02:01:20.662Z,99938.47
2022-09-12T02:06:33.733Z,99940.09
2022-09-12T02:11:42.365Z,99960.34
2022-09-12T02:16:50.103Z,99777.44
2022-09-12T02:21:59.161Z,99918.66
2022-09-12T02:27:25.670Z,99953.06
2022-09-12T02:32:38.150Z,99877.25
2022-09-12T02:38:03.110Z,99915.69
2022-09-12T02:43:07.010Z,99899.31
2022-09-12T02:48:09.400Z,99942.16
2022-09-12T02:53:12.403Z,99818.56
2022-09-12T02:58:21.359Z,99841.47
2022-09-12T03:03:42.712Z,99968.88
2022-09-12T03:09:00.977Z,99952.00
2022-09-12T03:14:32.471Z,99958.53
2022-09-12T03:19:39.134Z,99934.53
2022-09-12T03:25:00.410Z,99945.97
2022-09-12T03:30:05.670Z,99952.25
2022-09-12T03:35:08.430Z,99972.75
2022-09-12T03:40:13.160Z,99940.81
2022-09-12T03:45:17.083Z,99927.72
2022-09-12T03:50:19.544Z,99897.91
2022-09-12T03:55:22.116Z,99967.81
2022-09-12T04:00:25.202Z,99917.84
2022-09-12T04:05:27.719Z,99971.63
2022-09-12T04:10:30.195Z,99939.09
2022-09-12T04:15:32.979Z,99939.63
2022-09-12T04:20:37.351Z,99953.22
2022-09-12T04:25:39.839Z,99985.19
2022-09-12T04:30:42.374Z,99934.31
2022-09-12T04:35:45.947Z,99975.28
2022-09-12T04:40:48.447Z,99930.22
2022-09-12T04:45:54.686Z,99961.69
2022-09-12T04:50:57.225Z,100010.84
2022-09-12T04:56:03.606Z,100032.19
2022-09-12T05:01:11.828Z,99851.34
2022-09-12T05:06:18.026Z,99883.84
2022-09-12T05:11:26.670Z,100058.16
2022-09-12T05:16:33.558Z,99998.06
2022-09-12T05:21:36.155Z,100036.88
2022-09-12T05:26:38.893Z,100051.59
2022-09-12T05:31:42.133Z,100069.38
2022-09-12T05:36:44.703Z,99903.59
2022-09-12T05:41:47.853Z,100069.94
2022-09-12T05:46:51.833Z,100094.25
2022-09-12T05:51:54.233Z,100066.38
2022-09-12T05:56:57.271Z,100057.38
2022-09-12T06:01:59.908Z,100088.19
2022-09-12T06:07:02.335Z,100102.13
2022-09-12T06:12:05.152Z,100064.94
2022-09-12T06:17:07.647Z,100096.91
2022-09-12T06:22:10.489Z,100095.78
2022-09-12T06:27:12.858Z,100085.03
2022-09-12T06:32:15.164Z,100086.28
2022-09-12T06:37:17.597Z,100107.63
2022-09-12T06:42:20.604Z,100112.47
2022-09-12T06:47:23.946Z,100098.47
2022-09-12T06:52:26.320Z,100103.00
2022-09-12T06:57:31.028Z,100124.06
2022-09-12T07:02:33.441Z,100101.06
2022-09-12T07:07:36.486Z,100117.13
2022-09-12T07:12:39.123Z,100067.91
2022-09-12T07:17:41.537Z,100047.41
2022-09-12T07:22:44.125Z,100118.28
2022-09-12T07:27:51.048Z,100120.34
2022-09-12T07:32:56.591Z,100126.06
2022-09-12T07:37:58.879Z,100118.03
2022-09-12T07:43:01.263Z,100148.63
2022-09-12T07:48:04.198Z,100121.81
2022-09-12T07:53:06.948Z,100110.38
2022-09-12T07:58:09.356Z,100149.69
2022-09-12T08:03:11.935Z,100025.31
2022-09-12T08:08:14.456Z,100073.78
2022-09-12T08:13:18.037Z,100135.56
2022-09-12T08:18:42.622Z,100064.41
2022-09-12T08:23:45.603Z,100161.31
2022-09-12T08:28:48.153Z,100124.66
2022-09-12T08:33:51.394Z,100133.38
2022-09-12T08:39:00.349Z,100040.34
2022-09-12T08:44:14.106Z,100154.53
2022-09-12T08:49:28.785Z,100133.44
2022-09-12T08:54:35.155Z,100050.69
2022-09-12T08:59:43.442Z,100128.22
2022-09-12T09:04:53.504Z,100031.16
2022-09-12T09:10:20.600Z,100135.69
2022-09-12T09:16:00.809Z,100140.91
2022-09-12T09:21:10.668Z,100138.44
2022-09-12T09:26:29.301Z,100012.59
2022-09-12T09:31:34.679Z,100138.44
2022-09-12T09:37:08.892Z,99990.72
2022-09-12T09:42:31.609Z,100137.72
2022-09-12T09:47:34.065Z,100077.81
2022-09-12T09:52:39.813Z,100139.88
2022-09-12T09:57:45.411Z,100129.16
2022-09-12T10:03:13.728Z,100103.28
2022-09-12T10:08:26.926Z,100127.97
2022-09-12T10:13:38.134Z,100122.28
2022-09-12T10:19:01.141Z,100099.66
2022-09-12T10:24:12.371Z,100118.75
2022-09-12T10:29:29.010Z,100114.47
2022-09-12T10:34:45.964Z,100103.84
2022-09-12T10:39:55.244Z,100095.34
2022-09-12T10:44:57.607Z,100104.50
2022-09-12T10:50:29.076Z,100111.03
2022-09-12T10:55:36.084Z,100109.34
2022-09-12T11:00:45.927Z,100090.88
2022-09-12T11:06:04.123Z,100102.31
2022-09-12T11:11:12.280Z,100091.44
2022-09-12T11:16:23.623Z,100088.41
2022-09-12T11:21:49.702Z,100085.81
2022-09-12T11:27:05.541Z,100032.28
2022-09-12T11:32:42.056Z,100082.72
2022-09-12T11:37:47.475Z,100078.25
2022-09-12T11:42:54.632Z,100056.56
2022-09-12T11:48:01.879Z,100071.91
2022-09-12T11:53:17.427Z,100014.63
2022-09-12T11:58:24.984Z,100059.97
2022-09-12T12:03:40.189Z,100058.69
2022-09-12T12:08:45.136Z,100025.72
2022-09-12T12:13:56.575Z,100041.41
2022-09-12T12:19:01.468Z,100013.59
2022-09-12T12:24:10.059Z,100032.56
2022-09-12T12:29:17.938Z,100017.34
2022-09-12T12:34:35.709Z,100014.44
2022-09-12T12:39:38.053Z,100006.97
2022-09-12T12:44:47.787Z,100011.19
2022-09-12T12:49:58.028Z,99989.91
2022-09-12T12:55:04.696Z,99985.19
2022-09-12T13:00:26.522Z,100003.22
2022-09-12T13:05:31.689Z,99995.59
2022-09-12T13:10:34.982Z,99926.22
2022-09-12T13:15:37.348Z,99987.41
2022-09-12T13:20:52.948Z,99972.66
2022-09-12T13:25:58.624Z,99959.13
2022-09-12T13:31:11.834Z,99975.16
2022-09-12T13:36:30.679Z,99964.56
2022-09-12T13:42:00.909Z,99955.41
2022-09-12T13:47:05.692Z,99948.94
2022-09-12T13:52:18.668Z,99952.25
2022-09-12T13:57:38.947Z,99939.91
2022-09-12T14:02:41.510Z,99964.53
2022-09-12T14:07:55.571Z,99944.91
2022-09-12T14:12:59.489Z,99939.69
2022-09-12T14:18:04.056Z,99944.75
2022-09-12T14:23:29.815Z,99953.25
2022-09-12T14:28:35.773Z,99910.84
2022-09-12T14:33:53.052Z,99935.38
2022-09-12T14:39:02.648Z,99920.06
2022-09-12T14:44:16.962Z,99923.38
2022-09-12T14:49:49.286Z,99931.34
2022-09-12T14:55:02.771Z,99935.31
2022-09-12T15:00:14.583Z,99932.41
2022-09-12T15:05:26.906Z,99904.09
2022-09-12T15:10:39.089Z,99931.22
2022-09-12T15:15:45.002Z,99921.63
2022-09-12T15:20:50.634Z,99883.13
2022-09-12T15:25:55.615Z,99926.22
2022-09-12T15:31:05.433Z,99910.69
2022-09-12T15:36:17.197Z,99913.25
2022-09-12T15:41:39.071Z,99916.13
2022-09-12T15:46:41.719Z,99813.88
2022-09-12T15:51:44.354Z,99932.81
2022-09-12T15:56:47.161Z,99934.00
2022-09-12T16:01:49.778Z,99928.31
2022-09-12T16:06:52.778Z,99967.56
2022-09-12T16:11:55.510Z,99928.63
2022-09-12T16:16:57.841Z,99951.84
2022-09-12T16:22:04.619Z,99980.59
2022-09-12T16:27:07.424Z,99970.59
2022-09-12T16:32:09.811Z,99975.09
2022-09-12T16:37:12.162Z,99991.53
2022-09-12T16:42:14.463Z,99945.69
2022-09-12T16:47:16.947Z,99989.84
2022-09-12T16:52:22.391Z,99988.72
2022-09-12T16:57:27.499Z,100003.63
2022-09-12T17:02:31.991Z,100008.25
2022-09-12T17:07:35.267Z,100002.44
2022-09-12T17:12:37.924Z,100015.31
2022-09-12T17:17:41.898Z,99971.69
2022-09-12T17:22:44.588Z,100020.38
2022-09-12T17:27:47.049Z,100038.22
2022-09-12T17:32:53.761Z,100014.41
2022-09-12T17:37:56.263Z,100018.13
2022-09-12T17:43:00.329Z,100057.78
2022-09-12T17:48:03.030Z,100061.19
2022-09-12T17:53:09.922Z,100058.41
2022-09-12T17:58:13.174Z,100077.31
2022-09-12T18:03:16.202Z,100051.50
2022-09-12T18:08:19.690Z,100062.00
2022-09-12T18:13:22.272Z,100063.00
2022-09-12T18:18:24.791Z,100064.31
2022-09-12T18:23:27.852Z,100106.09
2022-09-12T18:28:57.594Z,100089.69
2022-09-12T18:34:01.617Z,100045.84
2022-09-12T18:39:04.235Z,100105.03
2022-09-12T18:44:07.621Z,100115.34
2022-09-12T18:49:12.919Z,100100.19
2022-09-12T18:54:15.964Z,100090.16
2022-09-12T18:59:18.427Z,100084.16
2022-09-12T19:04:21.037Z,100115.78
2022-09-12T19:09:23.905Z,100100.34
2022-09-12T19:14:27.404Z,100053.63
2022-09-12T19:19:29.768Z,100118.84
2022-09-12T19:24:34.823Z,100102.09
2022-09-12T19:30:06.024Z,100141.13
2022-09-12T19:35:36.871Z,100033.81
2022-09-12T19:46:42.528Z,99978.03
2022-09-12T20:05:43.040Z,100014.75
2022-09-12T21:04:16.504Z,100018.34
2022-09-12T21:09:19.629Z,100163.13
2022-09-12T21:14:22.406Z,100075.94
2022-09-12T21:19:24.988Z,100161.81
2022-09-12T21:24:30.592Z,100153.38
2022-09-12T21:29:33.243Z,100141.97
2022-09-12T21:34:36.357Z,100154.56
2022-09-12T21:39:39.423Z,100037.31
2022-09-12T21:44:43.495Z,100131.97
2022-09-12T21:49:46.152Z,100094.63
2022-09-12T21:54:48.507Z,100176.88
2022-09-12T21:59:51.098Z,100126.66
2022-09-12T22:04:53.536Z,100151.00
2022-09-12T22:09:58.588Z,100206.50
2022-09-12T22:15:17.397Z,100151.03
2022-09-12T22:20:28.235Z,100195.00
2022-09-12T22:25:32.385Z,100172.09
2022-09-12T22:30:37.125Z,100168.53
2022-09-12T22:35:42.951Z,100181.09
2022-09-12T22:40:48.843Z,100214.16
2022-09-12T22:45:53.639Z,100165.53
2022-09-12T22:50:57.456Z,100189.03
2022-09-12T22:56:05.608Z,100176.97
2022-09-12T23:01:15.968Z,100115.25
2022-09-12T23:06:21.150Z,100137.66
2022-09-12T23:11:25.921Z,100190.63
2022-09-12T23:16:32.626Z,100100.53
2022-09-12T23:21:37.156Z,100129.72
2022-09-12T23:26:43.000Z,100149.38
2022-09-12T23:31:45.469Z,100193.91
2022-09-12T23:36:47.910Z,100148.03
2022-09-12T23:41:52.000Z,100133.84
2022-09-12T23:46:54.481Z,100178.13
2022-09-12T23:51:57.167Z,100176.47
2022-09-12T23:56:59.522Z,100179.72
